sensor_id;sensor_type;location;lat;lon;timestamp;P1;durP1;ratioP1;P2;durP2;ratioP2
53389;SDS011;39288;42.970;1.524;2023-07-24T00:00:55;12.03;;;6.73;;
53389;SDS011;39288;42.970;1.524;2023-07-24T00:01:56;10.17;;;7.07;;
53389;SDS011;39288;42.970;1.524;2023-07-24T00:02:56;13.90;;;8.70;;
53389;SDS011;39288;42.970;1.524;2023-07-24T00:03:57;10.40;;;8.00;;
53389;SDS011;39288;42.970;1.524;2023-07-24T00:04:59;9.50;;;7.22;;
53389;SDS011;39288;42.970;1.524;2023-07-24T00:05:59;10.23;;;6.57;;
53389;SDS011;39288;42.970;1.524;2023-07-24T00:07:00;9.10;;;6.70;;
53389;SDS011;39288;42.970;1.524;2023-07-24T00:08:01;9.83;;;7.40;;
53389;SDS011;39288;42.970;1.524;2023-07-24T00:09:01;14.00;;;7.97;;
53389;SDS011;39288;42.970;1.524;2023-07-24T00:10:02;12.07;;;7.60;;
53389;SDS011;39288;42.970;1.524;2023-07-24T00:11:06;12.10;;;8.52;;
53389;SDS011;39288;42.970;1.524;2023-07-24T00:12:07;12.50;;;8.32;;
53389;SDS011;39288;42.970;1.524;2023-07-24T00:13:08;9.63;;;7.30;;
53389;SDS011;39288;42.970;1.524;2023-07-24T00:14:08;10.90;;;7.00;;
53389;SDS011;39288;42.970;1.524;2023-07-24T00:15:09;9.33;;;6.90;;
53389;SDS011;39288;42.970;1.524;2023-07-24T00:16:09;11.20;;;7.50;;
53389;SDS011;39288;42.970;1.524;2023-07-24T00:17:10;11.73;;;7.23;;
53389;SDS011;39288;42.970;1.524;2023-07-24T00:18:11;9.77;;;7.13;;
53389;SDS011;39288;42.970;1.524;2023-07-24T00:19:11;13.23;;;6.87;;
53389;SDS011;39288;42.970;1.524;2023-07-24T00:20:12;8.40;;;6.60;;
53389;SDS011;39288;42.970;1.524;2023-07-24T00:21:12;6.97;;;6.13;;
53389;SDS011;39288;42.970;1.524;2023-07-24T00:22:13;11.30;;;6.72;;
53389;SDS011;39288;42.970;1.524;2023-07-24T00:23:13;9.57;;;6.30;;
53389;SDS011;39288;42.970;1.524;2023-07-24T00:24:14;10.37;;;6.73;;
53389;SDS011;39288;42.970;1.524;2023-07-24T00:25:14;8.20;;;6.03;;
53389;SDS011;39288;42.970;1.524;2023-07-24T00:26:15;10.77;;;6.40;;
53389;SDS011;39288;42.970;1.524;2023-07-24T00:27:15;9.03;;;6.20;;
53389;SDS011;39288;42.970;1.524;2023-07-24T00:28:16;8.40;;;6.43;;
53389;SDS011;39288;42.970;1.524;2023-07-24T00:29:16;8.30;;;6.30;;
53389;SDS011;39288;42.970;1.524;2023-07-24T00:30:17;7.93;;;6.20;;
53389;SDS011;39288;42.970;1.524;2023-07-24T00:31:17;11.87;;;6.20;;
53389;SDS011;39288;42.970;1.524;2023-07-24T00:32:18;8.93;;;7.37;;
53389;SDS011;39288;42.970;1.524;2023-07-24T00:33:18;9.93;;;6.17;;
53389;SDS011;39288;42.970;1.524;2023-07-24T00:34:18;9.63;;;6.30;;
53389;SDS011;39288;42.970;1.524;2023-07-24T00:35:19;12.80;;;7.20;;
53389;SDS011;39288;42.970;1.524;2023-07-24T00:36:19;8.00;;;6.27;;
53389;SDS011;39288;42.970;1.524;2023-07-24T00:37:20;10.97;;;7.00;;
53389;SDS011;39288;42.970;1.524;2023-07-24T00:38:20;9.37;;;6.60;;
53389;SDS011;39288;42.970;1.524;2023-07-24T00:39:21;11.47;;;6.57;;
53389;SDS011;39288;42.970;1.524;2023-07-24T00:40:21;11.97;;;6.90;;
53389;SDS011;39288;42.970;1.524;2023-07-24T00:41:22;9.13;;;7.07;;
53389;SDS011;39288;42.970;1.524;2023-07-24T00:42:22;11.27;;;7.60;;
53389;SDS011;39288;42.970;1.524;2023-07-24T00:43:22;12.30;;;7.37;;
53389;SDS011;39288;42.970;1.524;2023-07-24T00:44:23;16.40;;;6.80;;
53389;SDS011;39288;42.970;1.524;2023-07-24T00:45:23;12.43;;;7.77;;
53389;SDS011;39288;42.970;1.524;2023-07-24T00:46:25;15.90;;;8.37;;
53389;SDS011;39288;42.970;1.524;2023-07-24T00:47:26;8.27;;;7.40;;
53389;SDS011;39288;42.970;1.524;2023-07-24T00:48:26;9.65;;;6.70;;
53389;SDS011;39288;42.970;1.524;2023-07-24T00:49:27;10.37;;;7.47;;
53389;SDS011;39288;42.970;1.524;2023-07-24T00:50:27;10.90;;;7.10;;
53389;SDS011;39288;42.970;1.524;2023-07-24T00:51:28;11.25;;;8.10;;
53389;SDS011;39288;42.970;1.524;2023-07-24T00:52:29;14.20;;;8.10;;
53389;SDS011;39288;42.970;1.524;2023-07-24T00:53:29;11.17;;;7.67;;
53389;SDS011;39288;42.970;1.524;2023-07-24T00:54:30;9.50;;;7.03;;
53389;SDS011;39288;42.970;1.524;2023-07-24T00:55:32;12.23;;;7.55;;
53389;SDS011;39288;42.970;1.524;2023-07-24T00:56:33;9.23;;;7.47;;
53389;SDS011;39288;42.970;1.524;2023-07-24T00:57:34;12.67;;;7.60;;
53389;SDS011;39288;42.970;1.524;2023-07-24T00:58:35;9.10;;;8.00;;
53389;SDS011;39288;42.970;1.524;2023-07-24T00:59:37;13.90;;;7.40;;
53389;SDS011;39288;42.970;1.524;2023-07-24T01:00:40;10.80;;;7.37;;
53389;SDS011;39288;42.970;1.524;2023-07-24T01:01:40;12.30;;;7.60;;
53389;SDS011;39288;42.970;1.524;2023-07-24T01:02:42;11.90;;;7.53;;
53389;SDS011;39288;42.970;1.524;2023-07-24T01:03:43;11.73;;;8.05;;
53389;SDS011;39288;42.970;1.524;2023-07-24T01:04:44;9.27;;;7.67;;
53389;SDS011;39288;42.970;1.524;2023-07-24T01:05:44;11.17;;;7.73;;
53389;SDS011;39288;42.970;1.524;2023-07-24T01:06:45;12.20;;;8.10;;
53389;SDS011;39288;42.970;1.524;2023-07-24T01:07:45;13.90;;;8.23;;
53389;SDS011;39288;42.970;1.524;2023-07-24T01:08:46;10.57;;;7.97;;
53389;SDS011;39288;42.970;1.524;2023-07-24T01:09:46;10.23;;;8.67;;
53389;SDS011;39288;42.970;1.524;2023-07-24T01:10:47;10.63;;;7.93;;
53389;SDS011;39288;42.970;1.524;2023-07-24T01:11:52;10.67;;;7.07;;
53389;SDS011;39288;42.970;1.524;2023-07-24T01:13:02;12.68;;;8.15;;
53389;SDS011;39288;42.970;1.524;2023-07-24T01:15:50;11.20;;;7.93;;
53389;SDS011;39288;42.970;1.524;2023-07-24T01:16:55;11.57;;;8.38;;
53389;SDS011;39288;42.970;1.524;2023-07-24T01:18:01;13.18;;;7.65;;
53389;SDS011;39288;42.970;1.524;2023-07-24T01:19:20;9.90;;;8.02;;
53389;SDS011;39288;42.970;1.524;2023-07-24T01:20:20;12.63;;;8.02;;
53389;SDS011;39288;42.970;1.524;2023-07-24T01:21:25;11.10;;;7.80;;
53389;SDS011;39288;42.970;1.524;2023-07-24T01:22:33;9.52;;;7.32;;
53389;SDS011;39288;42.970;1.524;2023-07-24T01:26:25;11.63;;;7.88;;
53389;SDS011;39288;42.970;1.524;2023-07-24T01:27:25;12.37;;;7.77;;
53389;SDS011;39288;42.970;1.524;2023-07-24T01:28:26;10.17;;;8.03;;
53389;SDS011;39288;42.970;1.524;2023-07-24T01:29:27;8.80;;;7.77;;
53389;SDS011;39288;42.970;1.524;2023-07-24T01:30:27;10.23;;;8.20;;
53389;SDS011;39288;42.970;1.524;2023-07-24T01:31:27;10.37;;;8.20;;
53389;SDS011;39288;42.970;1.524;2023-07-24T01:32:28;12.50;;;7.70;;
53389;SDS011;39288;42.970;1.524;2023-07-24T01:33:28;11.00;;;7.43;;
53389;SDS011;39288;42.970;1.524;2023-07-24T01:34:31;11.32;;;7.70;;
53389;SDS011;39288;42.970;1.524;2023-07-24T01:35:32;10.87;;;7.53;;
53389;SDS011;39288;42.970;1.524;2023-07-24T01:36:33;9.52;;;8.25;;
53389;SDS011;39288;42.970;1.524;2023-07-24T01:37:33;12.70;;;8.90;;
53389;SDS011;39288;42.970;1.524;2023-07-24T01:38:34;10.63;;;8.25;;
53389;SDS011;39288;42.970;1.524;2023-07-24T01:39:35;8.43;;;7.55;;
53389;SDS011;39288;42.970;1.524;2023-07-24T01:40:36;10.07;;;8.80;;
53389;SDS011;39288;42.970;1.524;2023-07-24T01:41:37;14.73;;;8.87;;
53389;SDS011;39288;42.970;1.524;2023-07-24T01:42:37;10.73;;;8.63;;
53389;SDS011;39288;42.970;1.524;2023-07-24T01:43:38;11.27;;;8.60;;
53389;SDS011;39288;42.970;1.524;2023-07-24T01:44:38;12.67;;;8.97;;
53389;SDS011;39288;42.970;1.524;2023-07-24T01:45:39;11.73;;;8.57;;
53389;SDS011;39288;42.970;1.524;2023-07-24T01:46:39;9.83;;;8.67;;
53389;SDS011;39288;42.970;1.524;2023-07-24T01:47:40;10.13;;;8.50;;
53389;SDS011;39288;42.970;1.524;2023-07-24T01:48:41;11.33;;;8.90;;
53389;SDS011;39288;42.970;1.524;2023-07-24T01:49:41;13.07;;;9.00;;
53389;SDS011;39288;42.970;1.524;2023-07-24T01:50:41;11.23;;;9.20;;
53389;SDS011;39288;42.970;1.524;2023-07-24T01:51:42;10.60;;;9.37;;
53389;SDS011;39288;42.970;1.524;2023-07-24T01:52:42;10.30;;;9.23;;
53389;SDS011;39288;42.970;1.524;2023-07-24T01:53:44;11.30;;;8.95;;
53389;SDS011;39288;42.970;1.524;2023-07-24T01:54:44;10.13;;;9.10;;
53389;SDS011;39288;42.970;1.524;2023-07-24T01:55:45;14.03;;;9.77;;
53389;SDS011;39288;42.970;1.524;2023-07-24T01:56:45;12.73;;;10.13;;
53389;SDS011;39288;42.970;1.524;2023-07-24T01:57:46;13.53;;;10.77;;
53389;SDS011;39288;42.970;1.524;2023-07-24T01:58:46;13.07;;;10.83;;
53389;SDS011;39288;42.970;1.524;2023-07-24T01:59:47;11.70;;;10.60;;
53389;SDS011;39288;42.970;1.524;2023-07-24T02:00:48;13.48;;;11.77;;
53389;SDS011;39288;42.970;1.524;2023-07-24T02:01:52;18.00;;;11.30;;
53389;SDS011;39288;42.970;1.524;2023-07-24T02:02:52;13.30;;;10.68;;
53389;SDS011;39288;42.970;1.524;2023-07-24T02:03:53;12.17;;;10.87;;
53389;SDS011;39288;42.970;1.524;2023-07-24T02:04:53;13.33;;;11.23;;
53389;SDS011;39288;42.970;1.524;2023-07-24T02:05:54;15.37;;;12.03;;
53389;SDS011;39288;42.970;1.524;2023-07-24T02:06:54;16.57;;;11.67;;
53389;SDS011;39288;42.970;1.524;2023-07-24T02:07:54;13.37;;;11.97;;
53389;SDS011;39288;42.970;1.524;2023-07-24T02:08:55;14.53;;;11.50;;
53389;SDS011;39288;42.970;1.524;2023-07-24T02:09:55;14.30;;;11.80;;
53389;SDS011;39288;42.970;1.524;2023-07-24T02:10:56;14.43;;;11.50;;
53389;SDS011;39288;42.970;1.524;2023-07-24T02:11:56;14.07;;;10.97;;
53389;SDS011;39288;42.970;1.524;2023-07-24T02:12:57;13.57;;;11.40;;
53389;SDS011;39288;42.970;1.524;2023-07-24T02:13:57;11.67;;;10.47;;
53389;SDS011;39288;42.970;1.524;2023-07-24T02:14:57;13.30;;;11.87;;
53389;SDS011;39288;42.970;1.524;2023-07-24T02:16:59;13.98;;;11.32;;
53389;SDS011;39288;42.970;1.524;2023-07-24T02:18:00;13.33;;;11.97;;
53389;SDS011;39288;42.970;1.524;2023-07-24T02:19:01;12.37;;;10.90;;
53389;SDS011;39288;42.970;1.524;2023-07-24T02:20:01;12.90;;;11.53;;
53389;SDS011;39288;42.970;1.524;2023-07-24T02:21:02;12.37;;;11.07;;
53389;SDS011;39288;42.970;1.524;2023-07-24T02:22:02;12.73;;;11.00;;
53389;SDS011;39288;42.970;1.524;2023-07-24T02:23:03;11.30;;;10.30;;
53389;SDS011;39288;42.970;1.524;2023-07-24T02:24:03;11.73;;;10.53;;
53389;SDS011;39288;42.970;1.524;2023-07-24T02:25:04;11.47;;;10.30;;
53389;SDS011;39288;42.970;1.524;2023-07-24T02:26:05;11.38;;;10.18;;
53389;SDS011;39288;42.970;1.524;2023-07-24T02:27:05;11.67;;;9.93;;
53389;SDS011;39288;42.970;1.524;2023-07-24T02:28:06;10.73;;;9.70;;
53389;SDS011;39288;42.970;1.524;2023-07-24T02:29:06;11.27;;;10.17;;
53389;SDS011;39288;42.970;1.524;2023-07-24T02:30:07;9.87;;;8.97;;
53389;SDS011;39288;42.970;1.524;2023-07-24T02:31:08;10.10;;;9.15;;
53389;SDS011;39288;42.970;1.524;2023-07-24T02:32:08;9.93;;;8.67;;
53389;SDS011;39288;42.970;1.524;2023-07-24T02:33:09;11.80;;;9.20;;
53389;SDS011;39288;42.970;1.524;2023-07-24T02:34:09;9.27;;;8.37;;
53389;SDS011;39288;42.970;1.524;2023-07-24T02:35:09;9.60;;;8.57;;
53389;SDS011;39288;42.970;1.524;2023-07-24T02:36:11;9.70;;;8.80;;
53389;SDS011;39288;42.970;1.524;2023-07-24T02:37:12;9.63;;;8.35;;
53389;SDS011;39288;42.970;1.524;2023-07-24T02:38:12;10.73;;;8.20;;
53389;SDS011;39288;42.970;1.524;2023-07-24T02:39:13;9.23;;;8.23;;
53389;SDS011;39288;42.970;1.524;2023-07-24T02:40:13;8.90;;;7.40;;
53389;SDS011;39288;42.970;1.524;2023-07-24T02:41:14;7.93;;;7.13;;
53389;SDS011;39288;42.970;1.524;2023-07-24T02:42:14;10.43;;;6.90;;
53389;SDS011;39288;42.970;1.524;2023-07-24T02:43:14;7.83;;;7.03;;
53389;SDS011;39288;42.970;1.524;2023-07-24T02:44:15;7.10;;;6.40;;
53389;SDS011;39288;42.970;1.524;2023-07-24T02:45:16;7.77;;;6.97;;
53389;SDS011;39288;42.970;1.524;2023-07-24T02:46:16;7.80;;;6.83;;
53389;SDS011;39288;42.970;1.524;2023-07-24T02:47:16;7.20;;;6.60;;
53389;SDS011;39288;42.970;1.524;2023-07-24T02:48:17;6.67;;;6.07;;
53389;SDS011;39288;42.970;1.524;2023-07-24T02:49:17;8.37;;;6.73;;
53389;SDS011;39288;42.970;1.524;2023-07-24T02:50:18;7.63;;;6.60;;
53389;SDS011;39288;42.970;1.524;2023-07-24T02:51:18;7.47;;;6.37;;
53389;SDS011;39288;42.970;1.524;2023-07-24T02:52:19;7.03;;;6.40;;
53389;SDS011;39288;42.970;1.524;2023-07-24T02:53:19;6.33;;;5.73;;
53389;SDS011;39288;42.970;1.524;2023-07-24T02:54:19;6.50;;;5.90;;
53389;SDS011;39288;42.970;1.524;2023-07-24T02:55:20;6.00;;;5.40;;
53389;SDS011;39288;42.970;1.524;2023-07-24T02:56:20;5.63;;;5.13;;
53389;SDS011;39288;42.970;1.524;2023-07-24T02:57:21;5.45;;;4.72;;
53389;SDS011;39288;42.970;1.524;2023-07-24T02:58:22;7.27;;;5.77;;
53389;SDS011;39288;42.970;1.524;2023-07-24T02:59:22;5.70;;;5.20;;
53389;SDS011;39288;42.970;1.524;2023-07-24T03:00:23;5.73;;;5.20;;
53389;SDS011;39288;42.970;1.524;2023-07-24T03:01:23;6.77;;;4.63;;
53389;SDS011;39288;42.970;1.524;2023-07-24T03:02:24;5.20;;;4.73;;
53389;SDS011;39288;42.970;1.524;2023-07-24T03:03:24;4.23;;;3.83;;
53389;SDS011;39288;42.970;1.524;2023-07-24T03:04:25;4.27;;;3.87;;
53389;SDS011;39288;42.970;1.524;2023-07-24T03:05:25;6.00;;;4.00;;
53389;SDS011;39288;42.970;1.524;2023-07-24T03:06:26;4.73;;;4.23;;
53389;SDS011;39288;42.970;1.524;2023-07-24T03:07:26;4.70;;;4.20;;
53389;SDS011;39288;42.970;1.524;2023-07-24T03:08:27;4.20;;;3.90;;
53389;SDS011;39288;42.970;1.524;2023-07-24T03:09:27;4.63;;;4.10;;
53389;SDS011;39288;42.970;1.524;2023-07-24T03:10:27;4.03;;;3.63;;
53389;SDS011;39288;42.970;1.524;2023-07-24T03:11:28;4.33;;;3.93;;
53389;SDS011;39288;42.970;1.524;2023-07-24T03:12:28;4.27;;;3.87;;
53389;SDS011;39288;42.970;1.524;2023-07-24T03:13:29;4.93;;;4.03;;
53389;SDS011;39288;42.970;1.524;2023-07-24T03:14:30;4.00;;;3.60;;
53389;SDS011;39288;42.970;1.524;2023-07-24T03:15:30;3.93;;;3.53;;
53389;SDS011;39288;42.970;1.524;2023-07-24T03:16:31;3.37;;;3.07;;
53389;SDS011;39288;42.970;1.524;2023-07-24T03:17:31;3.67;;;3.30;;
53389;SDS011;39288;42.970;1.524;2023-07-24T03:18:32;4.60;;;4.07;;
53389;SDS011;39288;42.970;1.524;2023-07-24T03:19:32;3.60;;;3.30;;
53389;SDS011;39288;42.970;1.524;2023-07-24T03:20:33;3.03;;;2.73;;
53389;SDS011;39288;42.970;1.524;2023-07-24T03:21:33;3.67;;;3.37;;
53389;SDS011;39288;42.970;1.524;2023-07-24T03:22:33;3.37;;;3.07;;
53389;SDS011;39288;42.970;1.524;2023-07-24T03:23:34;3.50;;;3.20;;
53389;SDS011;39288;42.970;1.524;2023-07-24T03:24:35;3.93;;;3.53;;
53389;SDS011;39288;42.970;1.524;2023-07-24T03:25:35;3.75;;;3.45;;
53389;SDS011;39288;42.970;1.524;2023-07-24T03:26:36;5.13;;;3.20;;
53389;SDS011;39288;42.970;1.524;2023-07-24T03:27:36;4.17;;;3.70;;
53389;SDS011;39288;42.970;1.524;2023-07-24T03:28:37;3.60;;;3.20;;
53389;SDS011;39288;42.970;1.524;2023-07-24T03:29:37;3.23;;;2.93;;
53389;SDS011;39288;42.970;1.524;2023-07-24T03:30:39;3.60;;;3.13;;
53389;SDS011;39288;42.970;1.524;2023-07-24T03:31:39;3.27;;;2.97;;
53389;SDS011;39288;42.970;1.524;2023-07-24T03:32:40;3.13;;;2.83;;
53389;SDS011;39288;42.970;1.524;2023-07-24T03:33:40;4.33;;;2.93;;
53389;SDS011;39288;42.970;1.524;2023-07-24T03:34:41;4.43;;;3.17;;
53389;SDS011;39288;42.970;1.524;2023-07-24T03:35:41;3.00;;;2.70;;
53389;SDS011;39288;42.970;1.524;2023-07-24T03:36:42;3.47;;;2.63;;
53389;SDS011;39288;42.970;1.524;2023-07-24T03:37:42;3.10;;;2.80;;
53389;SDS011;39288;42.970;1.524;2023-07-24T03:38:43;4.23;;;2.93;;
53389;SDS011;39288;42.970;1.524;2023-07-24T03:39:43;3.23;;;2.93;;
53389;SDS011;39288;42.970;1.524;2023-07-24T03:40:43;3.60;;;3.30;;
53389;SDS011;39288;42.970;1.524;2023-07-24T03:41:44;4.93;;;3.43;;
53389;SDS011;39288;42.970;1.524;2023-07-24T03:42:44;3.23;;;2.93;;
53389;SDS011;39288;42.970;1.524;2023-07-24T03:43:45;3.53;;;3.23;;
53389;SDS011;39288;42.970;1.524;2023-07-24T03:44:45;3.47;;;3.17;;
53389;SDS011;39288;42.970;1.524;2023-07-24T03:45:46;2.93;;;2.40;;
53389;SDS011;39288;42.970;1.524;2023-07-24T03:46:46;4.33;;;2.93;;
53389;SDS011;39288;42.970;1.524;2023-07-24T03:47:46;3.33;;;2.47;;
53389;SDS011;39288;42.970;1.524;2023-07-24T03:48:47;2.73;;;2.53;;
53389;SDS011;39288;42.970;1.524;2023-07-24T03:49:50;3.03;;;2.72;;
53389;SDS011;39288;42.970;1.524;2023-07-24T03:50:53;3.00;;;2.67;;
53389;SDS011;39288;42.970;1.524;2023-07-24T03:51:58;3.67;;;2.90;;
53389;SDS011;39288;42.970;1.524;2023-07-24T03:52:58;5.70;;;3.50;;
53389;SDS011;39288;42.970;1.524;2023-07-24T03:53:59;2.97;;;2.67;;
53389;SDS011;39288;42.970;1.524;2023-07-24T03:54:59;3.27;;;2.70;;
53389;SDS011;39288;42.970;1.524;2023-07-24T03:56:00;2.93;;;2.63;;
53389;SDS011;39288;42.970;1.524;2023-07-24T03:57:00;3.90;;;2.77;;
53389;SDS011;39288;42.970;1.524;2023-07-24T03:58:00;3.10;;;2.80;;
53389;SDS011;39288;42.970;1.524;2023-07-24T03:59:01;2.80;;;2.30;;
53389;SDS011;39288;42.970;1.524;2023-07-24T04:00:02;3.03;;;2.73;;
53389;SDS011;39288;42.970;1.524;2023-07-24T04:01:02;2.22;;;2.00;;
53389;SDS011;39288;42.970;1.524;2023-07-24T04:02:03;2.97;;;2.67;;
53389;SDS011;39288;42.970;1.524;2023-07-24T04:03:04;2.50;;;2.30;;
53389;SDS011;39288;42.970;1.524;2023-07-24T04:04:04;2.80;;;2.33;;
53389;SDS011;39288;42.970;1.524;2023-07-24T04:05:05;2.40;;;1.97;;
53389;SDS011;39288;42.970;1.524;2023-07-24T04:06:05;2.03;;;1.90;;
53389;SDS011;39288;42.970;1.524;2023-07-24T04:07:06;1.97;;;1.77;;
53389;SDS011;39288;42.970;1.524;2023-07-24T04:08:06;2.00;;;1.80;;
53389;SDS011;39288;42.970;1.524;2023-07-24T04:09:07;1.60;;;1.50;;
53389;SDS011;39288;42.970;1.524;2023-07-24T04:10:07;4.93;;;1.87;;
53389;SDS011;39288;42.970;1.524;2023-07-24T04:11:08;1.50;;;1.40;;
53389;SDS011;39288;42.970;1.524;2023-07-24T04:12:08;1.53;;;1.43;;
53389;SDS011;39288;42.970;1.524;2023-07-24T04:13:09;1.50;;;1.30;;
53389;SDS011;39288;42.970;1.524;2023-07-24T04:14:09;2.20;;;2.00;;
53389;SDS011;39288;42.970;1.524;2023-07-24T04:15:10;2.30;;;2.10;;
53389;SDS011;39288;42.970;1.524;2023-07-24T04:16:11;3.97;;;2.30;;
53389;SDS011;39288;42.970;1.524;2023-07-24T04:17:11;2.30;;;2.10;;
53389;SDS011;39288;42.970;1.524;2023-07-24T04:18:12;2.20;;;2.00;;
53389;SDS011;39288;42.970;1.524;2023-07-24T04:19:12;2.20;;;1.90;;
53389;SDS011;39288;42.970;1.524;2023-07-24T04:20:12;2.40;;;2.20;;
53389;SDS011;39288;42.970;1.524;2023-07-24T04:21:13;3.10;;;2.10;;
53389;SDS011;39288;42.970;1.524;2023-07-24T04:22:13;3.37;;;1.80;;
53389;SDS011;39288;42.970;1.524;2023-07-24T04:23:14;2.57;;;1.70;;
53389;SDS011;39288;42.970;1.524;2023-07-24T04:24:14;2.23;;;1.80;;
53389;SDS011;39288;42.970;1.524;2023-07-24T04:25:15;2.73;;;2.00;;
53389;SDS011;39288;42.970;1.524;2023-07-24T04:26:15;3.60;;;1.87;;
53389;SDS011;39288;42.970;1.524;2023-07-24T04:27:16;2.70;;;2.17;;
53389;SDS011;39288;42.970;1.524;2023-07-24T04:28:16;2.30;;;2.10;;
53389;SDS011;39288;42.970;1.524;2023-07-24T04:29:17;2.17;;;1.97;;
53389;SDS011;39288;42.970;1.524;2023-07-24T04:30:17;2.27;;;2.07;;
53389;SDS011;39288;42.970;1.524;2023-07-24T04:31:18;2.50;;;2.30;;
53389;SDS011;39288;42.970;1.524;2023-07-24T04:32:18;2.30;;;2.10;;
53389;SDS011;39288;42.970;1.524;2023-07-24T04:33:18;2.53;;;2.30;;
53389;SDS011;39288;42.970;1.524;2023-07-24T04:34:19;2.37;;;2.17;;
53389;SDS011;39288;42.970;1.524;2023-07-24T04:35:19;7.40;;;2.17;;
53389;SDS011;39288;42.970;1.524;2023-07-24T04:36:20;2.37;;;2.10;;
53389;SDS011;39288;42.970;1.524;2023-07-24T04:37:20;1.97;;;1.70;;
53389;SDS011;39288;42.970;1.524;2023-07-24T04:38:21;2.23;;;2.00;;
53389;SDS011;39288;42.970;1.524;2023-07-24T04:39:21;2.30;;;2.00;;
53389;SDS011;39288;42.970;1.524;2023-07-24T04:40:22;1.80;;;1.70;;
53389;SDS011;39288;42.970;1.524;2023-07-24T04:41:23;2.13;;;1.92;;
53389;SDS011;39288;42.970;1.524;2023-07-24T04:42:23;2.73;;;2.00;;
53389;SDS011;39288;42.970;1.524;2023-07-24T04:43:24;6.23;;;2.30;;
53389;SDS011;39288;42.970;1.524;2023-07-24T04:44:24;2.20;;;1.63;;
53389;SDS011;39288;42.970;1.524;2023-07-24T04:45:25;1.60;;;1.50;;
53389;SDS011;39288;42.970;1.524;2023-07-24T04:46:25;2.27;;;2.07;;
53389;SDS011;39288;42.970;1.524;2023-07-24T04:47:26;2.17;;;2.00;;
53389;SDS011;39288;42.970;1.524;2023-07-24T04:48:26;2.80;;;1.80;;
53389;SDS011;39288;42.970;1.524;2023-07-24T04:49:28;2.80;;;2.07;;
53389;SDS011;39288;42.970;1.524;2023-07-24T04:50:29;2.00;;;1.48;;
53389;SDS011;39288;42.970;1.524;2023-07-24T04:51:30;1.67;;;1.53;;
53389;SDS011;39288;42.970;1.524;2023-07-24T04:52:30;2.50;;;1.40;;
53389;SDS011;39288;42.970;1.524;2023-07-24T04:53:31;2.40;;;2.20;;
53389;SDS011;39288;42.970;1.524;2023-07-24T04:54:31;2.60;;;2.00;;
53389;SDS011;39288;42.970;1.524;2023-07-24T04:55:32;2.23;;;1.70;;
53389;SDS011;39288;42.970;1.524;2023-07-24T04:56:32;1.70;;;1.60;;
53389;SDS011;39288;42.970;1.524;2023-07-24T04:57:33;2.00;;;1.77;;
53389;SDS011;39288;42.970;1.524;2023-07-24T04:58:33;1.97;;;1.77;;
53389;SDS011;39288;42.970;1.524;2023-07-24T04:59:33;2.00;;;1.80;;
53389;SDS011;39288;42.970;1.524;2023-07-24T05:00:34;3.37;;;2.23;;
53389;SDS011;39288;42.970;1.524;2023-07-24T05:01:34;4.00;;;2.17;;
53389;SDS011;39288;42.970;1.524;2023-07-24T05:02:35;2.30;;;1.93;;
53389;SDS011;39288;42.970;1.524;2023-07-24T05:03:35;3.57;;;3.10;;
53389;SDS011;39288;42.970;1.524;2023-07-24T05:04:36;4.50;;;2.40;;
53389;SDS011;39288;42.970;1.524;2023-07-24T05:05:37;3.23;;;2.30;;
53389;SDS011;39288;42.970;1.524;2023-07-24T05:06:38;2.38;;;2.00;;
53389;SDS011;39288;42.970;1.524;2023-07-24T05:07:38;2.27;;;2.07;;
53389;SDS011;39288;42.970;1.524;2023-07-24T05:08:39;2.77;;;2.27;;
53389;SDS011;39288;42.970;1.524;2023-07-24T05:09:39;2.60;;;2.40;;
53389;SDS011;39288;42.970;1.524;2023-07-24T05:10:39;2.43;;;2.23;;
53389;SDS011;39288;42.970;1.524;2023-07-24T05:11:41;2.43;;;2.23;;
53389;SDS011;39288;42.970;1.524;2023-07-24T05:12:44;2.38;;;2.17;;
53389;SDS011;39288;42.970;1.524;2023-07-24T05:13:45;2.13;;;1.93;;
53389;SDS011;39288;42.970;1.524;2023-07-24T05:14:45;2.20;;;2.00;;
53389;SDS011;39288;42.970;1.524;2023-07-24T05:15:45;2.50;;;2.30;;
53389;SDS011;39288;42.970;1.524;2023-07-24T05:16:46;2.27;;;2.00;;
53389;SDS011;39288;42.970;1.524;2023-07-24T05:17:46;2.47;;;2.10;;
53389;SDS011;39288;42.970;1.524;2023-07-24T05:18:47;2.20;;;2.00;;
53389;SDS011;39288;42.970;1.524;2023-07-24T05:19:47;1.83;;;1.73;;
53389;SDS011;39288;42.970;1.524;2023-07-24T05:20:48;2.30;;;1.97;;
53389;SDS011;39288;42.970;1.524;2023-07-24T05:21:51;1.92;;;1.80;;
53389;SDS011;39288;42.970;1.524;2023-07-24T05:22:51;2.00;;;1.80;;
53389;SDS011;39288;42.970;1.524;2023-07-24T05:23:52;1.90;;;1.80;;
53389;SDS011;39288;42.970;1.524;2023-07-24T05:24:52;5.83;;;1.70;;
53389;SDS011;39288;42.970;1.524;2023-07-24T05:25:59;2.13;;;1.80;;
53389;SDS011;39288;42.970;1.524;2023-07-24T05:27:00;1.85;;;1.75;;
53389;SDS011;39288;42.970;1.524;2023-07-24T05:28:00;1.80;;;1.70;;
53389;SDS011;39288;42.970;1.524;2023-07-24T05:29:01;2.87;;;1.87;;
53389;SDS011;39288;42.970;1.524;2023-07-24T05:30:01;2.13;;;1.57;;
53389;SDS011;39288;42.970;1.524;2023-07-24T05:31:02;1.80;;;1.63;;
53389;SDS011;39288;42.970;1.524;2023-07-24T05:32:04;2.05;;;1.85;;
53389;SDS011;39288;42.970;1.524;2023-07-24T05:33:04;1.80;;;1.70;;
53389;SDS011;39288;42.970;1.524;2023-07-24T05:34:05;2.17;;;1.97;;
53389;SDS011;39288;42.970;1.524;2023-07-24T05:35:05;2.03;;;1.70;;
53389;SDS011;39288;42.970;1.524;2023-07-24T05:36:06;2.10;;;1.90;;
53389;SDS011;39288;42.970;1.524;2023-07-24T05:37:07;2.30;;;2.10;;
53389;SDS011;39288;42.970;1.524;2023-07-24T05:38:07;2.17;;;1.97;;
53389;SDS011;39288;42.970;1.524;2023-07-24T05:39:07;1.90;;;1.80;;
53389;SDS011;39288;42.970;1.524;2023-07-24T05:40:08;1.93;;;1.80;;
53389;SDS011;39288;42.970;1.524;2023-07-24T05:41:09;1.90;;;1.70;;
53389;SDS011;39288;42.970;1.524;2023-07-24T05:42:09;2.20;;;2.00;;
53389;SDS011;39288;42.970;1.524;2023-07-24T05:43:10;2.20;;;1.80;;
53389;SDS011;39288;42.970;1.524;2023-07-24T05:44:10;1.73;;;1.63;;
53389;SDS011;39288;42.970;1.524;2023-07-24T05:45:11;2.63;;;1.70;;
53389;SDS011;39288;42.970;1.524;2023-07-24T05:46:11;2.33;;;1.90;;
53389;SDS011;39288;42.970;1.524;2023-07-24T05:47:12;1.87;;;1.77;;
53389;SDS011;39288;42.970;1.524;2023-07-24T05:48:12;2.70;;;1.93;;
53389;SDS011;39288;42.970;1.524;2023-07-24T05:49:13;2.20;;;2.00;;
53389;SDS011;39288;42.970;1.524;2023-07-24T05:50:13;2.47;;;2.27;;
53389;SDS011;39288;42.970;1.524;2023-07-24T05:51:14;2.90;;;2.53;;
53389;SDS011;39288;42.970;1.524;2023-07-24T05:52:14;3.07;;;2.73;;
53389;SDS011;39288;42.970;1.524;2023-07-24T05:53:15;2.90;;;2.67;;
53389;SDS011;39288;42.970;1.524;2023-07-24T05:54:16;2.97;;;2.58;;
53389;SDS011;39288;42.970;1.524;2023-07-24T05:55:16;2.77;;;2.57;;
53389;SDS011;39288;42.970;1.524;2023-07-24T05:56:16;3.40;;;3.10;;
53389;SDS011;39288;42.970;1.524;2023-07-24T05:57:17;2.93;;;2.73;;
53389;SDS011;39288;42.970;1.524;2023-07-24T05:58:17;2.70;;;2.50;;
53389;SDS011;39288;42.970;1.524;2023-07-24T05:59:18;3.23;;;2.87;;
53389;SDS011;39288;42.970;1.524;2023-07-24T06:00:18;3.13;;;2.83;;
53389;SDS011;39288;42.970;1.524;2023-07-24T06:01:19;3.50;;;3.20;;
53389;SDS011;39288;42.970;1.524;2023-07-24T06:02:19;3.27;;;2.97;;
53389;SDS011;39288;42.970;1.524;2023-07-24T06:03:20;3.30;;;3.00;;
53389;SDS011;39288;42.970;1.524;2023-07-24T06:04:20;3.73;;;3.27;;
53389;SDS011;39288;42.970;1.524;2023-07-24T06:05:21;3.93;;;3.53;;
53389;SDS011;39288;42.970;1.524;2023-07-24T06:06:21;3.20;;;2.90;;
53389;SDS011;39288;42.970;1.524;2023-07-24T06:07:22;3.80;;;3.50;;
53389;SDS011;39288;42.970;1.524;2023-07-24T06:08:22;3.83;;;3.43;;
53389;SDS011;39288;42.970;1.524;2023-07-24T06:09:23;4.33;;;3.63;;
53389;SDS011;39288;42.970;1.524;2023-07-24T06:10:23;3.90;;;3.60;;